Watertown, MA (02472)

2:49 AM EDT on August 23, 2017 (GMT -0400)
Watertown Center | | Change Station
Active Advisory: Special Weather Statement

Elev 62 ft 42.37 °N, 71.18 °W | Updated 21 seconds ago

Overcast
Overcast
73.8 °F
Feels Like 72 °F
N
1.0
Wind Variable Wind from South

Today
High -- | Low -- °F
--% Chance of Precip.
Yesterday
High -- | Low -- °F
Precip. -- in
Pressure 29.70 in
Visibility 10.0 miles
Clouds Few 2500 ft
Scattered Clouds 7500 ft
Overcast 11000 ft
Heat Index 72 °F
Dew Point 70 °F
Humidity 88%
Rainfall 0.40 in
Snow Depth Not available.
6:00 AM 7:33 PM
Waxing Crescent, 3% visible
METAR KBED 230556Z AUTO 17005KT 10SM -RA FEW025 SCT075 OVC110 23/21 A2967 RMK AO2 TSE04 SLP058 P0007 60007 T02330211 10267 20233 58005
Pressure 29.70 in
Visibility 10.0 miles
Clouds Few 2500 ft
Scattered Clouds 7500 ft
Overcast 11000 ft
Heat Index 72 °F
Dew Point 70 °F
Humidity 88%
Rainfall 0.40 in
Snow Depth Not available.
6:00 AM 7:33 PM
Waxing Crescent, 3% visible
METAR KBED 230556Z AUTO 17005KT 10SM -RA FEW025 SCT075 OVC110 23/21 A2967 RMK AO2 TSE04 SLP058 P0007 60007 T02330211 10267 20233 58005

Get Your Daily Forecast Email!

Thanks for signing up!

Be on the lookout for a verification email in your inbox.

You'll start receiving severe weather alerts in your inbox..

×

10-Day Weather Forecast

Almanac

Astronomy

Aug. 23, 2017 Rise Set
Actual Time
Civil Twilight
Nautical Twilight
Astronomical Twilight
Moon
Length of Visible Light
Length of Day
Tomorrow will be .
, % of the Moon is Illuminated

Today's Extremes

State Highs State Lows

Community

WunderPhotos

Category 6

Welcome to Category 6. This is the collective home for Weather Underground's featured writeups by Dr. Jeff Masters (right), Bob Henson (left), Chris Burt, and other regular contributors.

Nearby

Air Quality

  Air Quality AQ Index Pollutant
Not available.

Snow Depth

Station Depth Elevation

Earthquake Activity

City Distance Mag. Time & Date
Minimum magnitude displayed is 2.5.

Coastal Water Temperatures

Place Temperature

Stations

Nearby Weather Stations

Station Location Temp. Windchill Dew Point Humidity Wind Precip. Elev Updated Type
                   

Watches & Warnings

Special Weather Statement
Issued: 2:11 AM EDT Aug. 23, 2017 – National Weather Service

... A developing strong thunderstorm in northern Norfolk and
southeastern Middlesex counties...

At 210 am EDT, Doppler radar was tracking a strong thunderstorm over
Natick, moving northeast at 25 mph.

Winds in excess of 40 mph will accompany these showers.

Locations impacted include...
Newton, Framingham, Waltham, Natick, Needham, Wellesley, Sudbury,
Wayland, Weston, Dover and Sherborn.

Precautionary/preparedness actions...

Get indoors when this storm approaches. Winds may be strong enough to
produce minor damage, such as a few downed branches.


Lat... Lon 4224 7140 4233 7146 4240 7130 4231 7118
time... Mot... loc 0610z 248deg 14kt 4229 7139


Frank